CPX466 Details

Departure: Theodore Francis Green State Airport (KPVD)
Arrival: Chicago/Rockford International Airport (KRFD)
Route: PUT CTR CAM Q822 FNT J547 OBK V24 KRENA V100 RFD


Current Weather Information
KPVD 230809Z AUTO 00000KT 3/4SM R05/3500V4500FT BR VV003 14/14 A2975 RMK AO2 T01390139
KRFD 230754Z 22008KT 10SM CLR 06/M01 A2983 RMK AO2 SLP106 T00561006